createdAt,value
2023-01-17T00:00:33.111Z,1.40
2023-01-17T00:02:59.748Z,1.35
2023-01-17T00:05:45.286Z,1.52
2023-01-17T00:10:58.363Z,1.20
2023-01-17T00:13:25.008Z,1.30
2023-01-17T00:15:52.309Z,1.08
2023-01-17T00:18:19.084Z,1.45
2023-01-17T00:21:04.344Z,1.90
2023-01-17T00:23:49.537Z,2.05
2023-01-17T00:26:17.265Z,1.08
2023-01-17T00:28:44.402Z,1.38
2023-01-17T00:31:14.205Z,1.65
2023-01-17T00:33:40.981Z,3.13
2023-01-17T00:36:08.001Z,2.22
2023-01-17T00:38:35.883Z,1.50
2023-01-17T00:41:03.894Z,1.35
2023-01-17T00:43:49.616Z,1.70
2023-01-17T00:46:34.929Z,1.60
2023-01-17T00:49:20.328Z,1.95
2023-01-17T00:54:51.182Z,1.48
2023-01-17T01:00:21.438Z,2.33
2023-01-17T01:03:06.725Z,1.40
2023-01-17T01:05:52.103Z,1.10
2023-01-17T01:08:44.586Z,1.70
2023-01-17T01:11:30.801Z,1.60
2023-01-17T01:14:15.917Z,1.98
2023-01-17T01:17:01.146Z,2.08
2023-01-17T01:19:46.329Z,1.05
2023-01-17T01:22:31.359Z,1.35
2023-01-17T01:25:16.473Z,1.38
2023-01-17T01:28:02.062Z,1.80
2023-01-17T01:30:47.381Z,1.30
2023-01-17T01:35:54.395Z,0.77
2023-01-17T01:38:24.897Z,1.23
2023-01-17T01:40:52.978Z,1.23
2023-01-17T01:43:43.243Z,0.88
2023-01-17T01:46:11.335Z,1.05
2023-01-17T01:48:37.978Z,1.10
2023-01-17T01:51:07.447Z,1.33
2023-01-17T01:53:35.772Z,1.10
2023-01-17T01:56:03.678Z,0.80
2023-01-17T01:58:33.051Z,0.80
2023-01-17T02:00:59.755Z,1.10
2023-01-17T02:03:29.466Z,0.90
2023-01-17T02:05:59.660Z,1.50
2023-01-17T02:08:26.937Z,1.02
2023-01-17T02:10:53.460Z,0.95
2023-01-17T02:13:20.765Z,0.90
2023-01-17T02:16:00.600Z,1.20
2023-01-17T02:18:45.157Z,1.13
2023-01-17T02:21:11.820Z,1.40
2023-01-17T02:23:53.945Z,1.25
2023-01-17T02:26:29.320Z,0.85
2023-01-17T02:29:10.937Z,1.10
2023-01-17T02:31:44.166Z,1.27
2023-01-17T02:34:15.471Z,0.90
2023-01-17T02:36:48.951Z,1.10
2023-01-17T02:39:20.023Z,1.13
2023-01-17T02:41:50.227Z,1.00
2023-01-17T02:44:18.991Z,1.30
2023-01-17T02:46:45.717Z,0.60
2023-01-17T02:49:12.719Z,0.90
2023-01-17T02:51:46.811Z,0.93
2023-01-17T02:54:32.057Z,0.70
2023-01-17T02:56:58.902Z,0.70
2023-01-17T02:59:38.546Z,0.80
2023-01-17T03:02:17.225Z,0.70
2023-01-17T03:04:49.737Z,1.40
2023-01-17T03:07:18.760Z,0.82
2023-01-17T03:09:46.669Z,0.60
2023-01-17T03:12:13.573Z,0.68
2023-01-17T03:14:40.532Z,0.80
2023-01-17T03:17:07.192Z,0.70
2023-01-17T03:19:33.870Z,1.23
2023-01-17T03:22:00.421Z,0.90
2023-01-17T03:24:26.944Z,0.88
2023-01-17T03:26:53.552Z,0.90
2023-01-17T03:29:20.251Z,1.20
2023-01-17T03:31:46.984Z,0.90
2023-01-17T03:34:13.467Z,1.52
2023-01-17T03:36:40.267Z,1.60
2023-01-17T03:39:06.781Z,0.70
2023-01-17T03:41:33.503Z,1.25
2023-01-17T03:44:01.051Z,1.10
2023-01-17T03:46:30.220Z,0.98
2023-01-17T03:48:56.764Z,1.33
2023-01-17T03:51:23.618Z,0.68
2023-01-17T03:53:50.826Z,0.63
2023-01-17T03:56:17.407Z,0.70
2023-01-17T03:58:44.387Z,0.70
2023-01-17T04:01:11.613Z,0.60
2023-01-17T04:03:38.528Z,0.70
2023-01-17T04:06:05.333Z,0.80
2023-01-17T04:08:31.903Z,1.15
2023-01-17T04:10:58.468Z,0.80
2023-01-17T04:13:25.194Z,0.50
2023-01-17T04:15:51.937Z,1.02
2023-01-17T04:18:19.606Z,0.73
2023-01-17T04:20:46.703Z,0.50
2023-01-17T04:23:13.401Z,1.00
2023-01-17T04:25:39.969Z,1.05
2023-01-17T04:28:06.541Z,0.77
2023-01-17T04:30:33.451Z,0.80
2023-01-17T04:33:00.104Z,0.65
2023-01-17T04:35:26.832Z,0.70
2023-01-17T04:37:53.444Z,0.90
2023-01-17T04:40:20.181Z,0.70
2023-01-17T04:42:47.146Z,0.60
2023-01-17T04:45:14.832Z,0.88
2023-01-17T04:47:41.366Z,0.95
2023-01-17T04:50:08.475Z,0.70
2023-01-17T04:52:34.988Z,0.80
2023-01-17T04:55:01.716Z,0.82
2023-01-17T04:57:28.420Z,1.00
2023-01-17T04:59:55.005Z,0.80
2023-01-17T05:02:21.787Z,0.70
2023-01-17T05:04:48.545Z,0.68
2023-01-17T05:07:15.110Z,0.70
2023-01-17T05:09:41.777Z,0.57
2023-01-17T05:12:08.373Z,0.73
2023-01-17T05:14:34.975Z,0.90
2023-01-17T05:17:03.134Z,1.20
2023-01-17T05:19:29.811Z,1.98
2023-01-17T05:22:04.122Z,1.85
2023-01-17T05:24:31.507Z,1.65
2023-01-17T05:27:03.260Z,1.77
2023-01-17T05:29:30.519Z,1.58
2023-01-17T05:31:57.443Z,1.70
2023-01-17T05:34:24.319Z,1.60
2023-01-17T05:36:51.153Z,1.85
2023-01-17T05:39:17.825Z,1.80
2023-01-17T05:41:44.746Z,1.70
2023-01-17T05:44:11.651Z,1.60
2023-01-17T05:46:38.380Z,1.63
2023-01-17T05:49:05.755Z,1.65
2023-01-17T05:51:32.519Z,1.85
2023-01-17T05:53:59.216Z,1.90
2023-01-17T05:56:25.867Z,1.85
2023-01-17T05:58:52.388Z,2.50
2023-01-17T06:01:19.718Z,2.38
2023-01-17T06:03:46.405Z,2.55
2023-01-17T06:06:13.377Z,1.98
2023-01-17T06:08:40.033Z,2.08
2023-01-17T06:11:06.592Z,2.00
2023-01-17T06:13:33.400Z,2.65
2023-01-17T06:16:04.203Z,2.15
2023-01-17T06:18:31.391Z,2.53
2023-01-17T06:20:57.983Z,2.42
2023-01-17T06:23:24.971Z,2.35
2023-01-17T06:25:52.102Z,2.70
2023-01-17T06:28:19.672Z,2.80
2023-01-17T06:30:46.739Z,2.10
2023-01-17T06:33:13.699Z,2.38
2023-01-17T06:35:41.140Z,2.67
2023-01-17T06:38:10.028Z,2.63
2023-01-17T06:40:36.693Z,2.38
2023-01-17T06:43:04.553Z,2.40
2023-01-17T06:45:31.744Z,2.60
2023-01-17T06:47:59.581Z,2.90
2023-01-17T06:50:26.264Z,2.83
2023-01-17T06:52:56.896Z,2.90
2023-01-17T06:55:23.899Z,3.17
2023-01-17T06:57:50.848Z,3.08
2023-01-17T07:00:17.605Z,2.53
2023-01-17T07:02:47.854Z,3.08
2023-01-17T07:05:16.361Z,2.83
2023-01-17T07:07:43.441Z,2.75
2023-01-17T07:10:10.607Z,3.03
2023-01-17T07:12:37.223Z,3.55
2023-01-17T07:15:04.287Z,2.78
2023-01-17T07:17:30.867Z,2.83
2023-01-17T07:19:57.394Z,2.33
2023-01-17T07:22:24.021Z,2.95
2023-01-17T07:24:50.691Z,2.95
2023-01-17T07:27:17.275Z,2.67
2023-01-17T07:29:43.888Z,3.28
2023-01-17T07:32:11.138Z,3.05
2023-01-17T07:34:37.851Z,2.75
2023-01-17T07:37:04.663Z,2.47
2023-01-17T07:39:31.322Z,3.08
2023-01-17T07:41:57.757Z,2.65
2023-01-17T07:44:24.504Z,3.15
2023-01-17T07:46:51.058Z,2.50
2023-01-17T07:49:17.619Z,2.95
2023-01-17T07:51:44.354Z,2.60
2023-01-17T07:54:11.538Z,3.00
2023-01-17T07:56:38.768Z,3.10
2023-01-17T07:59:05.987Z,2.80
2023-01-17T08:01:32.571Z,4.47
2023-01-17T08:03:59.530Z,3.30
2023-01-17T08:06:26.205Z,2.72
2023-01-17T08:08:55.172Z,2.88
2023-01-17T08:11:21.994Z,3.22
2023-01-17T08:13:48.730Z,3.75
2023-01-17T09:21:48.371Z,2.72
2023-01-17T10:34:23.173Z,2.53
2023-01-17T10:37:29.537Z,2.28
2023-01-17T10:44:30.794Z,2.50
2023-01-17T11:26:55.992Z,2.25
2023-01-17T11:29:31.662Z,2.10
2023-01-17T11:32:16.324Z,2.70
2023-01-17T11:34:43.028Z,2.60
2023-01-17T11:37:20.289Z,2.35
2023-01-17T11:39:50.421Z,2.70
2023-01-17T11:42:33.879Z,2.60
2023-01-17T11:45:19.071Z,2.78
2023-01-17T11:47:45.736Z,2.15
2023-01-17T11:50:25.179Z,2.45
2023-01-17T11:52:52.107Z,2.25
2023-01-17T11:55:23.063Z,2.17
2023-01-17T14:03:10.785Z,0.70
2023-01-17T14:35:49.632Z,0.75
2023-01-17T14:38:21.465Z,0.68
2023-01-17T14:41:08.530Z,0.70
2023-01-17T14:43:45.389Z,0.80
2023-01-17T14:46:18.119Z,0.50
2023-01-17T14:48:45.699Z,0.63
2023-01-17T14:51:20.536Z,0.70
2023-01-17T14:53:57.439Z,0.70
2023-01-17T14:56:25.185Z,0.70
2023-01-17T14:59:20.842Z,0.82
2023-01-17T15:02:06.202Z,1.10
2023-01-17T15:04:39.332Z,1.00
2023-01-17T15:07:06.921Z,0.65
2023-01-17T15:09:52.925Z,0.65
2023-01-17T15:12:34.858Z,0.65
2023-01-17T15:15:01.499Z,0.85
2023-01-17T15:17:28.683Z,0.70
2023-01-17T15:20:03.183Z,0.73
2023-01-17T15:22:32.473Z,0.65
2023-01-17T15:24:59.133Z,0.65
2023-01-17T15:27:25.932Z,0.60
2023-01-17T15:29:52.767Z,0.75
2023-01-17T15:32:31.229Z,0.77
2023-01-17T15:34:59.345Z,0.68
2023-01-17T15:37:30.036Z,0.88
2023-01-17T15:40:02.863Z,0.65
2023-01-17T15:42:31.490Z,0.70
2023-01-17T15:44:59.412Z,0.88
2023-01-17T15:47:30.865Z,1.05
2023-01-17T15:49:58.231Z,0.90
2023-01-17T15:52:24.893Z,1.50
2023-01-17T15:54:58.860Z,1.50
2023-01-17T15:57:27.266Z,1.33
2023-01-17T16:00:01.921Z,1.80
2023-01-17T16:02:31.695Z,1.70
2023-01-17T16:04:59.433Z,1.70
2023-01-17T16:07:34.210Z,1.98
2023-01-17T16:10:22.666Z,2.25
2023-01-17T16:12:50.769Z,2.20
2023-01-17T16:15:18.487Z,2.20
2023-01-17T16:17:47.569Z,2.40
2023-01-17T16:20:22.607Z,2.55
2023-01-17T16:25:17.893Z,2.10
2023-01-17T16:27:44.807Z,2.97
2023-01-17T16:30:15.295Z,2.38
2023-01-17T16:32:42.808Z,3.10
2023-01-17T16:35:19.146Z,2.50
2023-01-17T16:37:48.563Z,2.67
2023-01-17T16:40:15.421Z,2.00
2023-01-17T16:42:42.725Z,1.77
2023-01-17T16:45:10.310Z,2.00
2023-01-17T16:47:37.008Z,1.77
2023-01-17T16:50:03.990Z,1.80
2023-01-17T16:52:30.547Z,1.63
2023-01-17T16:54:57.086Z,1.63
2023-01-17T16:57:23.777Z,1.90
2023-01-17T16:59:51.126Z,1.50
2023-01-17T17:02:18.782Z,2.00
2023-01-17T17:04:45.633Z,1.92
2023-01-17T17:07:12.358Z,2.05
2023-01-17T17:09:38.871Z,2.05
2023-01-17T17:12:05.781Z,2.00
2023-01-17T17:14:32.371Z,2.10
2023-01-17T17:17:01.794Z,2.17
2023-01-17T17:19:28.348Z,2.50
2023-01-17T17:21:57.566Z,2.30
2023-01-17T17:24:24.082Z,2.45
2023-01-17T17:26:50.822Z,2.70
2023-01-17T17:29:17.727Z,2.50
2023-01-17T17:31:44.413Z,2.70
2023-01-17T17:34:12.094Z,2.70
2023-01-17T17:36:41.665Z,2.65
2023-01-17T17:39:12.022Z,2.92
2023-01-17T17:41:41.162Z,3.40
2023-01-17T17:44:07.764Z,2.25
2023-01-17T17:46:35.029Z,3.10
2023-01-17T17:49:01.937Z,3.15
2023-01-17T17:51:39.011Z,3.22
2023-01-17T17:54:08.755Z,3.80
2023-01-17T17:56:36.224Z,3.30
2023-01-17T17:59:03.663Z,4.20
2023-01-17T18:01:30.395Z,4.03
2023-01-17T18:04:00.433Z,3.72
2023-01-17T18:06:28.725Z,3.90
2023-01-17T18:08:55.585Z,3.95
2023-01-17T18:11:29.639Z,3.97
2023-01-17T18:13:59.332Z,3.67
2023-01-17T18:16:51.201Z,4.00
2023-01-17T18:19:22.301Z,3.92
2023-01-17T18:21:50.418Z,4.22
2023-01-17T18:24:18.441Z,4.40
2023-01-17T18:26:50.179Z,4.13
2023-01-17T18:29:17.931Z,4.93
2023-01-17T18:31:45.081Z,4.70
2023-01-17T18:34:15.704Z,4.68
2023-01-17T18:36:43.010Z,4.63
2023-01-17T18:39:14.917Z,4.47
2023-01-17T18:41:41.977Z,4.45
2023-01-17T18:44:09.218Z,4.40
2023-01-17T18:46:38.392Z,4.30
2023-01-17T18:49:05.081Z,4.82
2023-01-17T18:51:33.471Z,4.07
2023-01-17T18:54:04.905Z,3.85
2023-01-17T18:56:36.608Z,4.63
2023-01-17T18:59:09.030Z,3.53
2023-01-17T19:01:36.561Z,3.90
2023-01-17T19:04:04.720Z,4.28
2023-01-17T19:06:32.876Z,4.45
2023-01-17T19:08:59.484Z,4.32
2023-01-17T19:11:29.823Z,5.53
2023-01-17T19:13:56.761Z,4.43
2023-01-17T19:16:25.221Z,3.95
2023-01-17T19:18:52.367Z,4.20
2023-01-17T19:21:20.441Z,4.25
2023-01-17T19:23:47.595Z,3.35
2023-01-17T19:26:14.597Z,3.30
2023-01-17T19:28:44.883Z,3.35
2023-01-17T19:31:14.847Z,3.47
2023-01-17T19:33:43.738Z,2.97
2023-01-17T19:36:13.722Z,3.30
2023-01-17T19:38:40.586Z,3.63
2023-01-17T19:41:08.722Z,2.60
2023-01-17T19:43:35.624Z,2.63
2023-01-17T19:46:02.426Z,2.88
2023-01-17T19:48:29.426Z,2.70
2023-01-17T19:50:56.172Z,2.58
2023-01-17T19:53:23.021Z,2.30
2023-01-17T19:55:49.787Z,1.90
2023-01-17T19:58:16.522Z,2.05
2023-01-17T20:00:46.762Z,2.35
2023-01-17T20:03:13.745Z,2.92
2023-01-17T20:05:40.875Z,2.25
2023-01-17T20:08:09.840Z,2.42
2023-01-17T20:10:36.343Z,2.40
2023-01-17T20:13:05.273Z,2.30
2023-01-17T20:15:33.993Z,2.15
2023-01-17T20:18:01.905Z,2.15
2023-01-17T20:20:32.501Z,2.00
2023-01-17T20:23:01.414Z,2.28
2023-01-17T20:25:28.010Z,2.20
2023-01-17T20:27:55.315Z,2.00
2023-01-17T20:30:24.593Z,2.55
2023-01-17T20:32:51.749Z,2.08
2023-01-17T20:35:18.467Z,2.25
2023-01-17T20:37:45.080Z,2.10
2023-01-17T20:40:12.301Z,2.25
2023-01-17T20:42:39.570Z,2.20
2023-01-17T20:45:07.766Z,2.45
2023-01-17T20:47:34.617Z,4.35
2023-01-17T20:50:03.219Z,2.60
2023-01-17T20:52:32.207Z,2.33
2023-01-17T20:55:01.138Z,2.30
2023-01-17T20:57:27.737Z,2.35
2023-01-17T20:59:54.273Z,3.10
2023-01-17T21:02:21.887Z,2.45
2023-01-17T21:04:50.597Z,2.20
2023-01-17T21:07:47.986Z,3.10
2023-01-17T21:10:30.253Z,2.40
2023-01-17T21:16:00.294Z,2.35
2023-01-17T21:22:16.822Z,2.40
2023-01-17T21:24:43.548Z,8.75
2023-01-17T21:27:14.562Z,13.52
2023-01-17T21:29:41.509Z,21.33
2023-01-17T21:32:19.780Z,5.40
2023-01-17T21:34:48.231Z,7.93
2023-01-17T21:37:22.532Z,8.43
2023-01-17T21:42:41.604Z,4.35
2023-01-17T21:48:06.479Z,4.07
2023-01-17T21:50:43.938Z,3.30
2023-01-17T21:53:13.246Z,2.97
2023-01-17T21:56:01.320Z,3.45
2023-01-17T21:59:03.519Z,3.40
2023-01-17T22:01:43.693Z,2.70
2023-01-17T22:04:25.911Z,2.83
2023-01-17T22:06:54.137Z,3.22
2023-01-17T22:09:39.537Z,3.30
2023-01-17T22:12:08.867Z,2.70
2023-01-17T22:14:38.501Z,3.33
2023-01-17T22:17:08.813Z,3.42
2023-01-17T22:19:35.669Z,2.88
2023-01-17T22:22:02.595Z,2.63
2023-01-17T22:24:30.067Z,2.88
2023-01-17T22:26:58.676Z,3.10
2023-01-17T22:29:28.251Z,3.50
2023-01-17T22:32:01.206Z,3.35
2023-01-17T22:34:51.300Z,3.33
2023-01-17T22:37:21.677Z,2.88
2023-01-17T22:39:48.288Z,3.60
2023-01-17T22:42:16.650Z,3.10
2023-01-17T22:44:43.359Z,2.13
2023-01-17T22:47:10.419Z,2.60
2023-01-17T22:49:37.108Z,2.65
2023-01-17T22:52:03.919Z,2.05
2023-01-17T22:54:30.553Z,2.33
2023-01-17T22:56:57.212Z,1.65
2023-01-17T22:59:24.463Z,1.88
2023-01-17T23:01:51.962Z,1.65
2023-01-17T23:04:18.594Z,1.65
2023-01-17T23:06:45.599Z,1.45
2023-01-17T23:09:14.102Z,1.40
2023-01-17T23:11:50.050Z,1.80
2023-01-17T23:14:18.539Z,1.40
2023-01-17T23:17:14.366Z,1.70
2023-01-17T23:19:42.480Z,1.70
2023-01-17T23:22:16.661Z,1.98
2023-01-17T23:24:43.445Z,1.35
2023-01-17T23:27:29.380Z,1.70
2023-01-17T23:29:55.978Z,1.60
2023-01-17T23:32:22.789Z,1.40
2023-01-17T23:34:49.558Z,2.35
2023-01-17T23:37:16.234Z,2.60
2023-01-17T23:39:42.779Z,2.85
2023-01-17T23:42:28.073Z,2.50
2023-01-17T23:44:54.847Z,2.63
2023-01-17T23:47:21.728Z,3.08
2023-01-17T23:49:48.510Z,3.80
2023-01-17T23:52:15.972Z,4.30
2023-01-17T23:54:42.640Z,5.10
2023-01-17T23:57:09.628Z,4.30
2023-01-17T23:59:36.506Z,3.15
